createdAt,value
2018-11-03T00:00:24.835Z,6.60
2018-11-03T00:02:54.704Z,6.70
2018-11-03T00:05:22.564Z,6.70
2018-11-03T00:07:50.440Z,6.70
2018-11-03T00:10:18.403Z,6.70
2018-11-03T00:12:46.267Z,6.70
2018-11-03T00:15:14.096Z,6.70
2018-11-03T00:17:41.967Z,6.70
2018-11-03T00:20:11.669Z,6.60
2018-11-03T00:22:39.556Z,6.60
2018-11-03T00:25:07.764Z,6.60
2018-11-03T00:27:35.696Z,6.60
2018-11-03T00:30:03.891Z,6.60
2018-11-03T00:32:32.975Z,6.60
2018-11-03T00:35:00.675Z,6.70
2018-11-03T00:37:30.046Z,6.60
2018-11-03T00:39:57.838Z,6.60
2018-11-03T00:42:25.744Z,6.60
2018-11-03T00:44:54.087Z,6.60
2018-11-03T00:47:22.949Z,6.60
2018-11-03T00:49:50.684Z,6.60
2018-11-03T00:52:20.025Z,6.50
2018-11-03T00:54:47.971Z,6.50
2018-11-03T00:57:15.833Z,6.50
2018-11-03T00:59:45.030Z,6.50
2018-11-03T01:02:12.896Z,6.40
2018-11-03T01:04:40.706Z,6.40
2018-11-03T01:07:08.607Z,6.40
2018-11-03T01:09:37.752Z,6.30
2018-11-03T01:12:07.026Z,6.30
2018-11-03T01:14:34.848Z,6.20
2018-11-03T01:17:02.651Z,6.20
2018-11-03T01:19:30.489Z,6.20
2018-11-03T01:21:58.295Z,6.20
2018-11-03T01:24:26.753Z,6.20
2018-11-03T01:26:56.089Z,6.20
2018-11-03T01:29:23.953Z,6.20
2018-11-03T01:31:51.764Z,6.20
2018-11-03T01:34:20.947Z,6.20
2018-11-03T01:36:48.813Z,6.10
2018-11-03T01:39:16.596Z,6.10
2018-11-03T01:41:44.474Z,6.10
2018-11-03T01:44:12.464Z,6.10
2018-11-03T01:46:40.373Z,6.10
2018-11-03T01:49:09.468Z,6.10
2018-11-03T01:51:37.369Z,6.10
2018-11-03T01:54:05.268Z,6.20
2018-11-03T01:56:33.125Z,6.20
2018-11-03T01:59:00.953Z,6.20
2018-11-03T02:01:28.939Z,6.10
2018-11-03T02:03:56.839Z,6.10
2018-11-03T02:06:24.674Z,6.10
2018-11-03T02:08:53.714Z,6.10
2018-11-03T02:11:22.100Z,6.10
2018-11-03T02:13:50.190Z,6.20
2018-11-03T02:16:18.235Z,6.20
2018-11-03T02:18:46.125Z,6.20
2018-11-03T02:21:13.963Z,6.20
2018-11-03T02:23:42.029Z,6.20
2018-11-03T02:26:09.899Z,6.20
2018-11-03T02:28:37.847Z,6.20
2018-11-03T02:31:05.874Z,6.20
2018-11-03T02:33:35.186Z,6.20
2018-11-03T02:36:03.016Z,6.20
2018-11-03T02:38:30.811Z,6.20
2018-11-03T02:40:58.617Z,6.20
2018-11-03T02:43:26.415Z,6.20
2018-11-03T02:45:54.336Z,6.20
2018-11-03T02:48:22.282Z,6.30
2018-11-03T02:50:50.172Z,6.30
2018-11-03T02:53:18.018Z,6.30
2018-11-03T02:55:47.300Z,6.30
2018-11-03T02:58:15.522Z,6.30
2018-11-03T03:00:43.335Z,6.30
2018-11-03T03:03:11.249Z,6.30
2018-11-03T03:05:39.033Z,6.30
2018-11-03T03:08:06.781Z,6.40
2018-11-03T03:10:34.757Z,6.40
2018-11-03T03:13:02.662Z,6.40
2018-11-03T03:15:30.492Z,6.40
2018-11-03T03:17:58.326Z,6.40
2018-11-03T03:20:26.329Z,6.50
2018-11-03T03:22:54.399Z,6.40
2018-11-03T03:25:22.313Z,6.40
2018-11-03T03:27:50.281Z,6.50
2018-11-03T03:30:18.174Z,6.50
2018-11-03T03:32:46.036Z,6.50
2018-11-03T03:35:13.897Z,6.50
2018-11-03T03:37:41.974Z,6.50
2018-11-03T03:40:10.384Z,6.50
2018-11-03T03:42:38.472Z,6.50
2018-11-03T03:45:07.222Z,6.50
2018-11-03T03:47:36.486Z,6.50
2018-11-03T03:50:04.378Z,6.50
2018-11-03T03:52:32.281Z,6.50
2018-11-03T03:55:00.114Z,6.50
2018-11-03T03:57:29.565Z,6.50
2018-11-03T03:59:57.450Z,6.50
2018-11-03T04:02:25.412Z,6.50
2018-11-03T04:04:53.268Z,6.50
2018-11-03T04:07:21.267Z,6.60
2018-11-03T04:09:50.603Z,6.50
2018-11-03T04:12:18.465Z,6.50
2018-11-03T04:14:48.806Z,6.50
2018-11-03T04:17:16.613Z,6.50
2018-11-03T04:19:44.622Z,6.50
2018-11-03T04:22:12.552Z,6.50
2018-11-03T04:24:40.737Z,6.40
2018-11-03T04:27:08.884Z,6.40
2018-11-03T04:29:38.290Z,6.40
2018-11-03T04:32:06.149Z,6.40
2018-11-03T04:34:35.288Z,6.40
2018-11-03T04:37:03.196Z,6.40
2018-11-03T04:39:31.032Z,6.40
2018-11-03T04:42:00.104Z,6.40
2018-11-03T04:44:28.077Z,6.40
2018-11-03T04:46:55.907Z,6.40
2018-11-03T04:49:23.732Z,6.50
2018-11-03T04:51:51.765Z,6.50
2018-11-03T04:54:20.002Z,6.50
2018-11-03T04:56:48.333Z,6.50
2018-11-03T04:59:16.956Z,6.50
2018-11-03T05:01:46.236Z,6.60
2018-11-03T05:04:14.410Z,6.60
2018-11-03T05:06:42.322Z,6.60
2018-11-03T05:09:10.910Z,6.60
2018-11-03T05:11:38.976Z,6.60
2018-11-03T05:14:08.020Z,6.60
2018-11-03T05:16:35.991Z,6.60
2018-11-03T05:19:03.952Z,6.60
2018-11-03T05:21:31.891Z,6.60
2018-11-03T05:23:59.813Z,6.50
2018-11-03T05:26:28.262Z,6.50
2018-11-03T05:28:56.381Z,6.50
2018-11-03T05:31:24.534Z,6.50
2018-11-03T05:33:52.386Z,6.50
2018-11-03T05:36:22.229Z,6.50
2018-11-03T05:38:51.479Z,6.50
2018-11-03T05:41:21.014Z,6.50
2018-11-03T05:43:48.978Z,6.50
2018-11-03T05:46:17.357Z,6.50
2018-11-03T05:48:45.975Z,6.50
2018-11-03T05:51:13.960Z,6.50
2018-11-03T05:53:43.429Z,6.50
2018-11-03T05:56:11.290Z,6.50
2018-11-03T05:58:39.153Z,6.50
2018-11-03T06:01:07.383Z,6.40
2018-11-03T06:03:35.220Z,6.40
2018-11-03T06:06:03.234Z,6.40
2018-11-03T06:08:32.691Z,6.40
2018-11-03T06:11:00.440Z,6.30
2018-11-03T06:13:28.277Z,6.30
2018-11-03T06:15:56.237Z,6.30
2018-11-03T06:18:24.234Z,6.20
2018-11-03T06:20:52.139Z,6.20
2018-11-03T06:23:20.161Z,6.10
2018-11-03T06:25:49.346Z,6.10
2018-11-03T06:28:17.390Z,6.10
2018-11-03T06:30:45.310Z,6.00
2018-11-03T06:33:13.358Z,6.00
2018-11-03T06:35:41.215Z,5.90
2018-11-03T06:38:10.327Z,5.90
2018-11-03T06:40:38.343Z,5.80
2018-11-03T06:43:06.462Z,5.80
2018-11-03T06:45:34.583Z,5.70
2018-11-03T06:48:03.218Z,5.60
2018-11-03T06:54:50.359Z,5.60
2018-11-03T06:57:19.625Z,5.50
2018-11-03T06:59:51.175Z,5.50
2018-11-03T07:02:19.797Z,5.60
2018-11-03T07:10:29.258Z,5.80
2018-11-03T07:12:58.481Z,5.90
2018-11-03T07:18:11.488Z,6.10
2018-11-03T07:20:40.829Z,6.10
2018-11-03T07:26:01.469Z,6.30
2018-11-03T07:28:29.553Z,6.40
2018-11-03T07:30:57.391Z,6.50
2018-11-03T07:33:25.624Z,6.50
2018-11-03T07:35:53.618Z,6.60
2018-11-03T07:38:21.829Z,6.70
2018-11-03T07:40:51.289Z,6.70
2018-11-03T07:45:47.235Z,6.70
2018-11-03T07:48:16.465Z,6.80
2018-11-03T07:50:44.596Z,6.80
2018-11-03T07:53:14.382Z,6.80
2018-11-03T07:55:43.018Z,6.90
2018-11-03T07:58:11.208Z,6.90
2018-11-03T08:00:39.687Z,6.90
2018-11-03T08:03:09.728Z,6.90
2018-11-03T08:05:38.952Z,6.90
2018-11-03T08:08:07.246Z,7.00
2018-11-03T08:10:35.567Z,7.00
2018-11-03T08:13:04.081Z,7.10
2018-11-03T08:15:32.472Z,7.10
2018-11-03T08:18:01.048Z,7.10
2018-11-03T08:20:29.740Z,7.20
2018-11-03T08:22:58.104Z,7.30
2018-11-03T08:25:26.580Z,7.40
2018-11-03T08:27:57.045Z,7.40
2018-11-03T08:30:26.011Z,7.50
2018-11-03T08:32:57.174Z,7.60
2018-11-03T08:35:28.395Z,7.60
2018-11-03T08:37:56.775Z,7.60
2018-11-03T08:40:25.559Z,7.60
2018-11-03T08:42:53.942Z,7.50
2018-11-03T08:45:22.283Z,7.50
2018-11-03T08:47:50.420Z,7.60
2018-11-03T08:50:18.710Z,7.60
2018-11-03T08:52:47.602Z,7.60
2018-11-03T08:55:15.957Z,7.70
2018-11-03T08:57:44.262Z,7.70
2018-11-03T09:00:13.807Z,7.70
2018-11-03T09:02:42.924Z,7.80
2018-11-03T09:05:12.298Z,7.90
2018-11-03T09:07:41.547Z,8.00
2018-11-03T09:10:11.829Z,8.10
2018-11-03T09:12:40.009Z,8.10
2018-11-03T09:15:10.049Z,8.20
2018-11-03T09:17:39.461Z,8.20
2018-11-03T09:20:08.299Z,8.30
2018-11-03T09:22:37.347Z,8.40
2018-11-03T09:25:06.952Z,8.40
2018-11-03T09:27:35.494Z,8.40
2018-11-03T09:30:04.433Z,8.40
2018-11-03T09:32:32.869Z,8.50
2018-11-03T09:35:02.181Z,8.50
2018-11-03T09:37:30.622Z,8.50
2018-11-03T09:39:59.062Z,8.50
2018-11-03T09:42:27.354Z,8.50
2018-11-03T09:44:55.918Z,8.60
2018-11-03T09:47:24.566Z,8.60
2018-11-03T09:49:53.174Z,8.60
2018-11-03T09:52:22.001Z,8.70
2018-11-03T09:54:50.894Z,8.70
2018-11-03T09:57:19.901Z,8.70
2018-11-03T09:59:48.743Z,8.70
2018-11-03T10:02:18.205Z,8.70
2018-11-03T10:04:47.013Z,8.70
2018-11-03T10:07:16.365Z,8.70
2018-11-03T10:09:45.443Z,8.70
2018-11-03T10:12:14.161Z,8.70
2018-11-03T10:14:42.953Z,8.70
2018-11-03T10:17:11.613Z,8.70
2018-11-03T10:19:40.137Z,8.70
2018-11-03T10:22:10.119Z,8.70
2018-11-03T10:24:40.078Z,8.70
2018-11-03T10:27:08.944Z,8.70
2018-11-03T10:29:38.393Z,8.70
2018-11-03T10:32:07.684Z,8.80
2018-11-03T10:34:37.239Z,8.70
2018-11-03T10:37:06.616Z,8.80
2018-11-03T10:39:35.937Z,8.80
2018-11-03T10:42:05.478Z,8.80
2018-11-03T10:44:34.784Z,8.80
2018-11-03T10:47:04.267Z,8.80
2018-11-03T10:49:33.612Z,8.80
2018-11-03T10:52:03.497Z,8.80
2018-11-03T10:54:32.825Z,8.90
2018-11-03T10:57:02.214Z,8.90
2018-11-03T10:59:31.525Z,8.90
2018-11-03T11:02:06.660Z,8.90
2018-11-03T11:04:41.285Z,9.00
2018-11-03T11:07:17.935Z,9.00
2018-11-03T11:09:52.576Z,9.10
2018-11-03T11:12:26.793Z,9.10
2018-11-03T11:14:55.835Z,9.10
2018-11-03T11:17:25.691Z,9.20
2018-11-03T11:19:54.814Z,9.20
2018-11-03T11:22:24.096Z,9.30
2018-11-03T11:24:53.804Z,9.30
2018-11-03T11:27:23.148Z,9.20
2018-11-03T11:29:52.642Z,9.20
2018-11-03T11:32:21.861Z,9.20
2018-11-03T11:34:51.497Z,9.20
2018-11-03T11:37:21.650Z,9.20
2018-11-03T11:39:51.039Z,9.20
2018-11-03T11:42:20.302Z,9.20
2018-11-03T11:44:49.810Z,9.30
2018-11-03T11:47:18.921Z,9.30
2018-11-03T11:49:48.184Z,9.30
2018-11-03T11:52:17.723Z,9.30
2018-11-03T11:54:47.140Z,9.40
2018-11-03T11:57:16.955Z,9.40
2018-11-03T11:59:46.058Z,9.40
2018-11-03T12:02:16.434Z,9.30
2018-11-03T12:04:46.189Z,9.40
2018-11-03T12:07:15.988Z,9.40
2018-11-03T12:09:45.195Z,9.40
2018-11-03T12:12:13.712Z,9.50
2018-11-03T12:14:43.104Z,9.50
2018-11-03T12:17:12.527Z,9.50
2018-11-03T12:19:41.769Z,9.50
2018-11-03T12:22:11.253Z,9.50
2018-11-03T12:24:40.950Z,9.50
2018-11-03T12:27:10.074Z,9.40
2018-11-03T12:29:39.296Z,9.40
2018-11-03T12:32:08.751Z,9.50
2018-11-03T12:34:38.234Z,9.40
2018-11-03T12:37:07.547Z,9.40
2018-11-03T12:39:37.243Z,9.40
2018-11-03T12:42:06.765Z,9.40
2018-11-03T12:44:36.355Z,9.40
2018-11-03T12:47:05.578Z,9.30
2018-11-03T12:49:35.005Z,9.30
2018-11-03T12:52:04.942Z,9.30
2018-11-03T12:54:34.530Z,9.30
2018-11-03T12:57:04.158Z,9.30
2018-11-03T12:59:33.317Z,9.30
2018-11-03T13:02:03.233Z,9.40
2018-11-03T13:04:32.624Z,9.30
2018-11-03T13:07:03.530Z,9.30
2018-11-03T13:09:34.902Z,9.30
2018-11-03T13:12:05.389Z,9.30
2018-11-03T13:14:35.145Z,9.30
2018-11-03T13:17:04.386Z,9.40
2018-11-03T13:19:34.097Z,9.40
2018-11-03T13:22:05.670Z,9.50
2018-11-03T13:24:34.971Z,9.50
2018-11-03T13:27:05.709Z,9.50
2018-11-03T13:29:35.312Z,9.50
2018-11-03T13:32:04.962Z,9.40
2018-11-03T13:34:35.032Z,9.40
2018-11-03T13:37:04.738Z,9.40
2018-11-03T13:39:34.676Z,9.40
2018-11-03T13:42:04.322Z,9.40
2018-11-03T13:44:33.445Z,9.40
2018-11-03T13:47:03.152Z,9.30
2018-11-03T13:49:32.705Z,9.30
2018-11-03T13:52:02.115Z,9.20
2018-11-03T13:54:31.669Z,9.20
2018-11-03T13:57:01.333Z,9.20
2018-11-03T13:59:30.349Z,9.10
2018-11-03T14:02:00.188Z,9.10
2018-11-03T14:04:29.521Z,9.10
2018-11-03T14:06:59.263Z,9.10
2018-11-03T14:09:28.633Z,9.10
2018-11-03T14:11:57.868Z,9.00
2018-11-03T14:14:27.748Z,9.00
2018-11-03T14:16:57.043Z,9.00
2018-11-03T14:19:26.672Z,9.00
2018-11-03T14:21:56.300Z,8.90
2018-11-03T14:24:26.259Z,8.90
2018-11-03T14:26:55.677Z,8.90
2018-11-03T14:29:25.049Z,8.90
2018-11-03T14:31:54.834Z,8.90
2018-11-03T14:34:24.146Z,8.90
2018-11-03T14:36:54.319Z,8.90
2018-11-03T14:39:23.590Z,8.90
2018-11-03T14:41:52.857Z,8.80
2018-11-03T14:44:22.515Z,8.80
2018-11-03T14:46:51.782Z,8.80
2018-11-03T14:49:20.871Z,8.80
2018-11-03T14:51:50.410Z,8.80
2018-11-03T14:54:19.761Z,8.70
2018-11-03T14:56:49.568Z,8.80
2018-11-03T14:59:19.069Z,8.70
2018-11-03T15:01:48.832Z,8.70
2018-11-03T15:04:18.269Z,8.70
2018-11-03T15:06:47.570Z,8.60
2018-11-03T15:09:17.458Z,8.60
2018-11-03T15:11:48.095Z,8.60
2018-11-03T15:14:17.345Z,8.50
2018-11-03T15:16:46.864Z,8.50
2018-11-03T15:19:16.065Z,8.50
2018-11-03T15:21:45.201Z,8.50
2018-11-03T15:24:14.733Z,8.50
2018-11-03T15:26:44.018Z,8.40
2018-11-03T15:29:13.493Z,8.40
2018-11-03T15:31:43.257Z,8.40
2018-11-03T15:34:13.372Z,8.40
2018-11-03T15:36:43.738Z,8.30
2018-11-03T15:39:13.147Z,8.30
2018-11-03T15:41:42.372Z,8.30
2018-11-03T15:44:12.218Z,8.30
2018-11-03T15:46:41.910Z,8.30
2018-11-03T15:49:11.630Z,8.30
2018-11-03T15:51:41.592Z,8.30
2018-11-03T15:54:11.219Z,8.30
2018-11-03T15:56:41.055Z,8.20
2018-11-03T15:59:10.622Z,8.20
2018-11-03T16:01:40.116Z,8.20
2018-11-03T16:04:09.656Z,8.20
2018-11-03T16:06:39.360Z,8.20
2018-11-03T16:09:11.245Z,8.20
2018-11-03T16:11:40.202Z,8.20
2018-11-03T16:14:10.078Z,8.20
2018-11-03T16:16:40.306Z,8.20
2018-11-03T16:19:09.531Z,8.20
2018-11-03T16:21:39.029Z,8.20
2018-11-03T16:24:08.146Z,8.20
2018-11-03T16:26:37.480Z,8.20
2018-11-03T16:29:06.630Z,8.20
2018-11-03T16:31:35.537Z,8.20
2018-11-03T16:34:05.850Z,8.20
2018-11-03T16:36:34.492Z,8.20
2018-11-03T16:39:03.320Z,8.20
2018-11-03T16:41:32.046Z,8.20
2018-11-03T16:44:00.831Z,8.20
2018-11-03T16:46:31.054Z,8.20
2018-11-03T16:48:59.797Z,8.20
2018-11-03T16:51:28.600Z,8.10
2018-11-03T16:53:57.364Z,8.10
2018-11-03T16:56:26.475Z,8.10
2018-11-03T16:58:55.184Z,8.10
2018-11-03T17:01:24.386Z,8.10
2018-11-03T17:03:53.096Z,8.10
2018-11-03T17:06:21.865Z,8.10
2018-11-03T17:08:50.447Z,8.10
2018-11-03T17:11:20.675Z,8.10
2018-11-03T17:13:49.443Z,8.10
2018-11-03T17:16:18.173Z,8.10
2018-11-03T17:18:47.169Z,8.10
2018-11-03T17:21:15.731Z,8.10
2018-11-03T17:23:44.605Z,8.10
2018-11-03T17:26:13.253Z,8.10
2018-11-03T17:28:42.031Z,8.10
2018-11-03T17:31:11.141Z,8.10
2018-11-03T17:33:40.277Z,8.10
2018-11-03T17:36:09.098Z,8.10
2018-11-03T17:38:37.730Z,8.10
2018-11-03T17:41:09.719Z,8.10
2018-11-03T17:43:41.412Z,8.10
2018-11-03T17:46:10.079Z,8.10
2018-11-03T17:48:38.826Z,8.10
2018-11-03T17:51:08.278Z,8.10
2018-11-03T17:53:37.042Z,8.10
2018-11-03T17:56:05.822Z,8.10
2018-11-03T17:58:34.533Z,8.10
2018-11-03T18:01:03.411Z,8.10
2018-11-03T18:03:32.202Z,8.10
2018-11-03T18:06:01.868Z,8.10
2018-11-03T18:08:31.030Z,8.10
2018-11-03T18:11:00.189Z,8.10
2018-11-03T18:13:29.015Z,8.10
2018-11-03T18:15:57.772Z,8.10
2018-11-03T18:18:26.393Z,8.10
2018-11-03T18:20:55.066Z,8.10
2018-11-03T18:23:24.409Z,8.10
2018-11-03T18:25:53.274Z,8.10
2018-11-03T18:28:21.995Z,8.10
2018-11-03T18:30:50.867Z,8.10
2018-11-03T18:33:20.062Z,8.10
2018-11-03T18:35:49.332Z,8.10
2018-11-03T18:38:19.435Z,8.10
2018-11-03T18:40:50.289Z,8.10
2018-11-03T18:43:19.380Z,8.10
2018-11-03T18:45:47.969Z,8.10
2018-11-03T18:48:16.760Z,8.10
2018-11-03T18:50:45.550Z,8.10
2018-11-03T18:53:14.512Z,8.10
2018-11-03T18:55:43.749Z,8.10
2018-11-03T18:58:11.749Z,8.10
2018-11-03T19:00:40.036Z,8.10
2018-11-03T19:03:08.026Z,8.10
2018-11-03T19:05:35.992Z,8.10
2018-11-03T19:08:04.121Z,8.10
2018-11-03T19:10:33.762Z,8.10
2018-11-03T19:13:02.583Z,8.10
2018-11-03T19:15:31.467Z,8.10
2018-11-03T19:18:00.024Z,8.10
2018-11-03T19:20:27.997Z,8.10
2018-11-03T19:22:55.919Z,8.10
2018-11-03T19:25:23.911Z,8.00
2018-11-03T19:27:53.034Z,8.00
2018-11-03T19:30:22.040Z,8.00
2018-11-03T19:32:50.864Z,8.00
2018-11-03T19:35:18.792Z,8.00
2018-11-03T19:37:49.691Z,8.10
2018-11-03T19:40:18.527Z,8.10
2018-11-03T19:42:46.608Z,8.10
2018-11-03T19:45:16.148Z,8.10
2018-11-03T19:47:44.701Z,8.10
2018-11-03T19:50:13.407Z,8.00
2018-11-03T19:52:42.113Z,8.00
2018-11-03T19:55:11.128Z,8.00
2018-11-03T19:57:40.512Z,8.00
2018-11-03T20:00:11.773Z,8.00
2018-11-03T20:02:41.135Z,8.00
2018-11-03T20:05:10.774Z,8.00
2018-11-03T20:07:40.135Z,8.10
2018-11-03T20:10:09.540Z,8.10
2018-11-03T20:12:37.330Z,8.10
2018-11-03T20:15:06.352Z,8.10
2018-11-03T20:17:34.167Z,8.10
2018-11-03T20:20:02.069Z,8.10
2018-11-03T20:22:30.331Z,8.10
2018-11-03T20:24:58.813Z,8.10
2018-11-03T20:27:27.117Z,8.10
2018-11-03T20:29:55.806Z,8.10
2018-11-03T20:32:24.798Z,8.10
2018-11-03T20:34:52.908Z,8.10
2018-11-03T20:37:20.883Z,8.10
2018-11-03T20:39:49.079Z,8.10
2018-11-03T20:42:17.077Z,8.10
2018-11-03T20:44:45.048Z,8.10
2018-11-03T20:47:13.033Z,8.10
2018-11-03T20:49:40.928Z,8.10
2018-11-03T20:52:08.702Z,8.10
2018-11-03T20:54:36.599Z,8.10
2018-11-03T20:57:04.531Z,8.10
2018-11-03T20:59:32.428Z,8.10
2018-11-03T21:02:00.416Z,8.10
2018-11-03T21:04:28.485Z,8.10
2018-11-03T21:06:56.226Z,8.10
2018-11-03T21:09:24.129Z,8.10
2018-11-03T21:11:52.049Z,8.10
2018-11-03T21:14:20.086Z,8.10
2018-11-03T21:16:47.955Z,8.10
2018-11-03T21:19:15.866Z,8.10
2018-11-03T21:21:45.158Z,8.10
2018-11-03T21:24:13.103Z,8.10
2018-11-03T21:26:41.034Z,8.10
2018-11-03T21:29:09.122Z,8.10
2018-11-03T21:31:37.144Z,8.10
2018-11-03T21:34:05.310Z,8.10
2018-11-03T21:36:33.649Z,8.10
2018-11-03T21:39:01.523Z,8.00
2018-11-03T21:41:29.993Z,8.10
2018-11-03T21:43:58.518Z,8.10
2018-11-03T21:46:27.279Z,8.10
2018-11-03T21:48:56.245Z,8.10
2018-11-03T21:51:24.403Z,8.10
2018-11-03T21:53:52.323Z,8.10
2018-11-03T21:56:20.440Z,8.10
2018-11-03T21:58:48.425Z,8.20
2018-11-03T22:01:18.058Z,8.20
2018-11-03T22:03:45.969Z,8.20
2018-11-03T22:06:14.109Z,8.20
2018-11-03T22:08:42.086Z,8.30
2018-11-03T22:11:10.044Z,8.30
2018-11-03T22:13:38.857Z,8.30
2018-11-03T22:16:07.898Z,8.30
2018-11-03T22:18:37.088Z,8.40
2018-11-03T22:21:06.138Z,8.40
2018-11-03T22:23:34.184Z,8.40
2018-11-03T22:26:03.239Z,8.40
2018-11-03T22:28:32.040Z,8.40
2018-11-03T22:31:00.000Z,8.40
2018-11-03T22:33:29.203Z,8.40
2018-11-03T22:35:57.451Z,8.40
2018-11-03T22:38:25.781Z,8.50
2018-11-03T22:40:53.898Z,8.50
2018-11-03T22:43:21.981Z,8.40
2018-11-03T22:45:50.004Z,8.40
2018-11-03T22:48:17.895Z,8.40
2018-11-03T22:50:46.212Z,8.30
2018-11-03T22:53:14.496Z,8.30
2018-11-03T22:55:42.575Z,8.20
2018-11-03T22:58:10.461Z,8.20
2018-11-03T23:00:44.033Z,8.10
2018-11-03T23:03:12.211Z,8.00
2018-11-03T23:05:40.913Z,7.90
2018-11-03T23:08:09.034Z,7.90
2018-11-03T23:10:37.448Z,7.80
2018-11-03T23:13:05.655Z,7.80
2018-11-03T23:15:33.727Z,7.80
2018-11-03T23:18:02.009Z,7.90
2018-11-03T23:20:29.919Z,7.90
2018-11-03T23:22:57.819Z,8.00
2018-11-03T23:25:26.072Z,8.00
2018-11-03T23:27:54.488Z,8.00
2018-11-03T23:30:22.602Z,8.00
2018-11-03T23:32:51.042Z,8.10
2018-11-03T23:35:19.171Z,8.10
2018-11-03T23:37:47.936Z,8.10
2018-11-03T23:40:16.841Z,8.10
2018-11-03T23:42:45.085Z,8.20
2018-11-03T23:45:13.500Z,8.20
2018-11-03T23:47:41.843Z,8.20
2018-11-03T23:50:11.310Z,8.20
2018-11-03T23:52:43.354Z,8.20
2018-11-03T23:55:11.567Z,8.20
2018-11-03T23:57:39.725Z,8.30
